Time;durP1;ratioP1;P1;durP2;ratioP2;P2;SDS_P1;SDS_P2;PMS_P1;PMS_P2;Temp;Humidity;BMP_temperature;BMP_pressure;BME280_temperature;BME280_humidity;BME280_pressure;Samples;Min_cycle;Max_cycle;Signal;HPM_P1;HPM_P2
2022/03/09 00:01:26;;;;;;;;;;;;;;;29.34;56.88;100920.06;4976547;28;70090;-42
2022/03/09 00:03:57;;;;;;;;;;;;;;;29.16;58.78;100907.19;4999179;27;66841;-41
2022/03/09 00:06:27;;;;;;;;;;;;;;;29.22;59.42;100927.13;4975281;28;69291;-39
2022/03/09 00:08:57;;;;;;;;;;;;;;;29.17;60.51;100932.34;4974680;28;65468;-40
2022/03/09 00:11:27;;;;;;;;;;;;;;;29.14;61.00;100935.44;4976215;28;69770;-38
2022/03/09 00:13:58;;;;;;;;;;;;;;;29.13;61.24;100944.59;4977588;28;65660;-46
2022/03/09 00:16:27;;;;;;;;;;;;;;;29.12;61.08;100951.03;4973892;28;69662;-38
2022/03/09 00:18:57;;;;;;;;;;;;;;;29.11;61.44;100954.75;4979526;28;66322;-39
2022/03/09 00:21:29;;;;;;;;;;;;;;;29.10;61.69;100953.94;4971187;28;69688;-38
2022/03/09 00:23:58;;;;;;;;;;;;;;;29.09;61.87;100959.56;4970866;28;66414;-38
2022/03/09 00:26:30;;;;;;;;;;;;;;;29.13;62.12;100966.19;4967878;27;70465;-40
2022/03/09 00:29:00;;;;;;;;;;;;;;;29.22;61.36;100964.13;4975990;28;66846;-40
2022/03/09 00:31:31;;;;;;;;;;;;;;;29.28;60.19;100969.53;4970123;28;69020;-42
2022/03/09 00:34:01;;;;;;;;;;;;;;;29.37;59.95;100978.28;4988183;28;66778;-41
2022/03/09 00:36:33;;;;;;;;;;;;;;;29.47;59.32;100969.72;4959754;28;69388;-42
2022/03/09 00:39:03;;;;;;;;;;;;;;;29.55;60.19;100980.31;4958668;28;66662;-42
2022/03/09 00:41:34;;;;;;;;;;;;;;;29.60;59.73;100980.53;4958757;28;69853;-41
2022/03/09 00:44:04;;;;;;;;;;;;;;;29.68;60.03;100988.47;4955577;28;66284;-41
2022/03/09 00:46:36;;;;;;;;;;;;;;;29.74;59.82;100982.22;4970157;28;70117;-41
2022/03/09 00:49:06;;;;;;;;;;;;;;;29.80;59.79;100989.47;4966133;28;66550;-41
2022/03/09 00:51:37;;;;;;;;;;;;;;;29.88;59.73;101001.13;4989486;27;70231;-41
2022/03/09 00:54:07;;;;;;;;;;;;;;;29.93;59.89;101004.03;4976608;28;65681;-41
2022/03/09 00:56:38;;;;;;;;;;;;;;;29.98;59.66;101009.66;4976639;28;70117;-40
2022/03/09 00:59:08;;;;;;;;;;;;;;;30.04;59.45;101006.09;4973357;28;66762;-41
2022/03/09 01:01:40;;;;;;;;;;;;;;;30.08;59.47;101007.31;4978158;27;70736;-41
2022/03/09 01:04:10;;;;;;;;;;;;;;;30.13;58.86;101009.41;4963276;28;65835;-41
2022/03/09 01:06:42;;;;;;;;;;;;;;;30.18;58.17;101023.94;4976113;28;70459;-41
2022/03/09 01:09:11;;;;;;;;;;;;;;;30.15;60.46;101026.25;4968130;28;67021;-39
2022/03/09 01:11:43;;;;;;;;;;;;;;;30.14;61.99;101022.69;4967591;28;69999;-43
2022/03/09 01:14:13;;;;;;;;;;;;;;;30.16;62.41;101026.03;4975293;28;66809;-41
2022/03/09 01:16:44;;;;;;;;;;;;;;;30.22;61.97;101035.19;4975029;28;69247;-41
2022/03/09 01:19:14;;;;;;;;;;;;;;;30.26;61.55;101037.28;4971915;28;66411;-43
2022/03/09 01:21:46;;;;;;;;;;;;;;;30.30;60.80;101043.09;4973023;28;70350;-41
2022/03/09 01:24:15;;;;;;;;;;;;;;;30.35;60.91;101046.00;4973180;28;65786;-41
2022/03/09 01:26:48;;;;;;;;;;;;;;;30.40;60.55;101054.31;4963712;28;69969;-42
2022/03/09 01:29:17;;;;;;;;;;;;;;;30.44;60.46;101052.81;4976767;28;66322;-42
2022/03/09 01:31:48;;;;;;;;;;;;;;;30.48;60.73;101047.84;4975080;28;69935;-41
2022/03/09 01:34:18;;;;;;;;;;;;;;;30.51;60.77;101055.53;4986364;28;66250;-41
2022/03/09 01:50:34;;;;;;;44.42;26.48;;;;;;;31.46;56.45;101068.41;5116903;27;45142;-41
2022/03/09 01:53:05;;;;;;;45.17;26.25;;;;;;;31.37;56.62;101073.25;5131552;27;70013;-41
2022/03/09 01:55:36;;;;;;;49.80;26.93;;;;;;;31.33;56.72;101074.72;5094450;27;65561;-42
2022/03/09 01:58:07;;;;;;;37.10;24.87;;;;;;;31.33;56.94;101069.28;5120895;27;70307;-41
2022/03/09 02:00:37;;;;;;;39.50;25.73;;;;;;;31.35;57.14;101069.91;5102845;27;65620;-42
2022/03/09 02:03:08;;;;;;;39.42;25.00;;;;;;;31.34;57.02;101076.38;5077484;27;70041;-41
2022/03/09 02:05:39;;;;;;;34.35;24.30;;;;;;;31.37;56.78;101070.53;5113820;27;65502;-41
2022/03/09 02:11:01;;;;;;;40.35;25.95;;;;;;;31.39;56.75;101058.44;5115600;27;66303;-41
2022/03/09 02:13:37;;;;;;;40.08;25.55;;;;;;;31.40;57.41;101053.88;5103551;27;70268;-40
2022/03/09 02:16:08;;;;;;;34.50;24.05;;;;;;;31.42;56.57;101056.34;5094130;27;67121;-42
2022/03/09 02:18:38;;;;;;;37.25;23.90;;;;;;;31.44;56.52;101060.50;5095392;27;70497;-42
2022/03/09 02:21:15;;;;;;;41.92;25.17;;;;;;;31.43;56.67;101048.00;5112488;27;66217;-42
2022/03/09 02:23:46;;;;;;;40.30;24.48;;;;;;;31.49;56.72;101052.53;5074209;27;70525;-42
2022/03/09 02:26:17;;;;;;;41.95;24.60;;;;;;;31.51;56.81;101055.88;5103088;27;66167;-42
2022/03/09 02:28:49;;;;;;;34.08;24.30;;;;;;;31.52;56.67;101057.50;5113047;27;70481;-42
2022/03/09 02:31:20;;;;;;;33.63;24.00;;;;;;;31.55;56.36;101051.63;5096556;27;67004;-41
2022/03/09 02:33:51;;;;;;;34.47;23.95;;;;;;;31.53;56.17;101037.47;5094929;27;70964;-42
2022/03/09 02:36:22;;;;;;;35.83;25.10;;;;;;;31.56;56.77;101047.88;5114121;27;65649;-41
2022/03/09 02:38:52;;;;;;;27.67;22.33;;;;;;;31.61;56.56;101045.31;5092668;27;69676;-41
2022/03/09 02:41:23;;;;;;;33.00;24.08;;;;;;;31.56;56.84;101031.59;5087285;27;65442;-41
2022/03/09 02:43:53;;;;;;;36.42;23.98;;;;;;;31.65;56.46;101039.47;5092867;27;70376;-42
2022/03/09 02:46:24;;;;;;;32.20;23.70;;;;;;;31.67;56.67;101040.91;5094542;27;66074;-41
2022/03/09 02:48:55;;;;;;;33.77;23.60;;;;;;;31.66;56.45;101038.44;5093523;27;70248;-41
2022/03/09 02:51:26;;;;;;;33.72;23.25;;;;;;;31.72;56.30;101040.25;5082018;27;65770;-40
2022/03/09 02:53:57;;;;;;;37.00;23.80;;;;;;;31.72;56.58;101032.94;5100301;27;71413;-41
2022/03/09 02:56:28;;;;;;;29.55;22.42;;;;;;;31.69;55.98;101029.84;5101461;27;66022;-42
2022/03/09 02:58:58;;;;;;;34.10;21.63;;;;;;;31.79;56.40;101035.59;5099443;27;70612;-41
2022/03/09 03:01:29;;;;;;;27.67;23.45;;;;;;;31.80;56.08;101031.81;5071404;28;66478;-43
2022/03/09 03:04:00;;;;;;;32.63;22.83;;;;;;;31.84;56.33;101033.03;5076890;27;69933;-42
2022/03/09 03:06:32;;;;;;;33.67;23.70;;;;;;;31.82;56.24;101024.31;5079322;27;66097;-42
2022/03/09 03:09:02;;;;;;;28.13;22.77;;;;;;;31.88;56.12;101026.13;5078522;27;69446;-42
2022/03/09 03:11:33;;;;;;;;;;;;;;;31.57;57.29;101027.84;5078763;27;66552;-42
2022/03/09 03:14:04;;;;;;;34.17;22.92;;;;;;;31.88;56.28;101028.00;5078911;27;70457;-43
2022/03/09 03:16:34;;;;;;;32.42;22.58;;;;;;;31.93;56.22;101020.03;5080278;28;66516;-41
2022/03/09 03:19:04;;;;;;;29.13;21.92;;;;;;;31.96;56.15;101012.28;5078901;28;70376;-42
2022/03/09 03:21:36;;;;;;;27.75;22.23;;;;;;;31.95;55.80;101007.06;5080926;27;67313;-41
2022/03/09 03:24:07;;;;;;;36.07;21.80;;;;;;;31.97;55.81;101000.38;5080313;28;70005;-42
2022/03/09 03:26:38;;;;;;;34.33;23.33;;;;;;;32.03;55.71;100994.03;5091742;27;65575;-41
2022/03/09 03:29:08;;;;;;;27.52;22.55;;;;;;;31.98;55.44;100980.34;5100983;27;69103;-43
2022/03/09 03:31:38;;;;;;;31.00;21.85;;;;;;;32.08;55.43;100995.25;5101263;27;65313;-41
2022/03/09 03:34:09;;;;;;;29.73;22.45;;;;;;;32.11;55.19;100986.66;5098392;27;70310;-41
2022/03/09 03:36:40;;;;;;;28.48;21.35;;;;;;;32.11;55.65;100990.22;5083895;27;66409;-42
2022/03/09 03:39:11;;;;;;;28.55;21.63;;;;;;;32.10;55.49;100977.69;5083456;27;70547;-41
2022/03/09 03:41:41;;;;;;;30.23;22.10;;;;;;;32.17;55.65;100977.63;5080962;27;66582;-42
2022/03/09 03:44:12;;;;;;;30.98;22.00;;;;;;;32.13;55.27;100966.41;5079355;28;69998;-42
2022/03/09 03:46:44;;;;;;;34.30;23.00;;;;;;;32.21;54.86;100984.25;5086722;27;66250;-42
2022/03/09 03:49:14;;;;;;;;;;;;;;;31.93;56.54;100990.19;5071522;27;69069;-42
2022/03/09 03:51:44;;;;;;;34.75;20.83;;;;;;;32.23;55.04;100971.28;5082456;27;66739;-43
2022/03/09 03:54:15;;;;;;;26.58;20.60;;;;;;;32.24;54.75;100968.34;5097603;27;69236;-43
2022/03/09 03:56:46;;;;;;;30.92;21.27;;;;;;;32.26;55.14;100963.53;5083955;27;67800;-42
2022/03/09 03:59:17;;;;;;;28.35;19.55;;;;;;;32.33;54.24;100960.72;5091131;27;70096;-41
2022/03/09 04:01:48;;;;;;;23.85;21.00;;;;;;;32.36;54.56;100960.25;5084385;27;65209;-42
2022/03/09 04:04:19;;;;;;;28.20;20.38;;;;;;;32.37;54.30;100945.63;5076908;28;69562;-42
2022/03/09 04:06:49;;;;;;;27.52;21.45;;;;;;;32.40;54.53;100945.19;5092271;27;66388;-42
2022/03/09 04:09:20;;;;;;;22.30;19.92;;;;;;;32.44;54.14;100940.94;5062460;28;69344;-41
2022/03/09 04:11:50;;;;;;;23.17;20.42;;;;;;;32.43;54.19;100930.28;5059429;28;65789;-41
2022/03/09 04:14:22;;;;;;;23.52;20.08;;;;;;;32.42;54.16;100910.47;5081450;27;70206;-42
2022/03/09 04:16:52;;;;;;;24.75;20.83;;;;;;;32.47;53.86;100918.78;5116491;27;66134;-41
2022/03/09 04:19:23;;;;;;;29.70;20.70;;;;;;;32.55;53.57;100930.41;5096284;27;70331;-42
2022/03/09 04:21:54;;;;;;;27.77;21.77;;;;;;;32.57;53.60;100922.81;5080716;28;66276;-42
2022/03/09 04:24:24;;;;;;;30.00;21.75;;;;;;;32.59;53.38;100920.72;5078976;28;70200;-42
2022/03/09 04:26:55;;;;;;;24.98;21.13;;;;;;;32.62;53.29;100917.53;5079673;28;66142;-42
2022/03/09 04:29:25;;;;;;;30.63;21.08;;;;;;;32.59;53.38;100905.25;5079566;28;69670;-41
2022/03/09 04:31:57;;;;;;;23.73;20.43;;;;;;;32.61;53.53;100905.84;5093953;27;65990;-41
2022/03/09 04:34:29;;;;;;;24.15;20.17;;;;;;;32.60;53.36;100889.78;5100728;27;69988;-41
2022/03/09 04:36:59;;;;;;;30.48;21.65;;;;;;;32.65;53.42;100898.06;5101419;27;66903;-42
2022/03/09 04:39:29;;;;;;;28.15;21.27;;;;;;;32.64;53.20;100885.53;5099800;27;70195;-42
2022/03/09 04:42:00;;;;;;;25.98;20.50;;;;;;;32.67;52.87;100885.91;5082603;27;65265;-41
2022/03/09 04:44:31;;;;;;;40.60;20.75;;;;;;;32.66;53.31;100878.00;5090606;27;70600;-41
2022/03/09 04:47:01;;;;;;;29.42;20.88;;;;;;;32.69;52.58;100874.81;5094666;27;65786;-41
2022/03/09 04:49:32;;;;;;;28.83;20.70;;;;;;;32.68;53.12;100879.44;5074183;28;70006;-42
2022/03/09 04:52:03;;;;;;;26.67;19.67;;;;;;;32.66;53.14;100864.41;5080021;28;65261;-42
2022/03/09 04:54:36;;;;;;;26.48;20.45;;;;;;;32.67;52.65;100861.44;5078602;28;70960;-43
2022/03/09 04:57:07;;;;;;;27.58;19.85;;;;;;;32.68;53.15;100865.84;5080490;28;65675;-40
2022/03/09 04:59:38;;;;;;;26.52;19.95;;;;;;;32.66;53.18;100861.69;5080517;27;70211;-43
2022/03/09 05:02:09;;;;;;;28.90;20.15;;;;;;;32.69;53.10;100862.06;5061754;28;66614;-41
2022/03/09 05:04:40;;;;;;;21.35;18.88;;;;;;;32.64;53.04;100842.91;5077576;27;70323;-41
2022/03/09 05:07:10;;;;;;;23.45;19.15;;;;;;;32.66;52.83;100838.09;5078606;27;65562;-42
2022/03/09 05:09:41;;;;;;;24.50;19.73;;;;;;;32.71;52.97;100843.66;5078326;28;69141;-41
2022/03/09 05:12:11;;;;;;;24.20;19.23;;;;;;;32.72;52.70;100833.59;5079078;27;66110;-42
2022/03/09 05:14:43;;;;;;;20.70;18.58;;;;;;;32.71;52.90;100837.38;5077268;28;69582;-41
2022/03/09 05:17:13;;;;;;;23.75;18.85;;;;;;;32.74;52.72;100827.94;5080172;27;66052;-42
2022/03/09 05:19:43;;;;;;;27.00;18.50;;;;;;;32.75;52.94;100822.25;5078999;28;70176;-42
2022/03/09 05:22:14;;;;;;;24.92;18.83;;;;;;;32.76;52.99;100818.47;5079488;28;65614;-42
2022/03/09 05:24:53;;;;;;;23.33;18.10;;;;;;;32.77;53.14;100806.56;5079558;27;70235;-41
2022/03/09 05:27:27;;;;;;;24.48;19.13;;;;;;;32.77;52.95;100809.28;5080453;27;66614;-40
2022/03/09 05:29:57;;;;;;;21.55;18.20;;;;;;;32.73;52.62;100797.22;5079973;28;70131;-41
2022/03/09 05:32:28;;;;;;;21.02;18.67;;;;;;;32.62;52.80;100768.97;5080217;28;66127;-41
2022/03/09 05:34:58;;;;;;;22.13;17.95;;;;;;;32.82;52.50;100795.81;5080305;28;69439;-45
2022/03/09 05:37:35;;;;;;;21.98;18.23;;;;;;;32.82;52.90;100790.41;5080578;27;66987;-41
2022/03/09 05:40:06;;;;;;;19.95;17.88;;;;;;;32.87;52.97;100785.06;5079683;27;70468;-42
2022/03/09 05:42:37;;;;;;;24.60;18.45;;;;;;;32.88;52.70;100788.63;5077399;28;66645;-41
2022/03/09 05:45:09;;;;;;;19.23;17.33;;;;;;;32.88;52.90;100775.88;5079799;27;70982;-41
2022/03/09 05:47:50;;;;;;;24.13;18.00;;;;;;;32.84;53.04;100755.66;5080342;27;66402;-42
2022/03/09 05:50:21;;;;;;;18.90;16.90;;;;;;;32.90;53.04;100757.44;5079729;27;70516;-42
2022/03/09 05:52:52;;;;;;;20.30;17.02;;;;;;;32.90;52.82;100749.28;5078513;28;66175;-43
2022/03/09 05:55:23;;;;;;;20.27;17.45;;;;;;;32.92;52.62;100752.56;5077049;28;69597;-42
2022/03/09 05:57:54;;;;;;;19.48;17.40;;;;;;;32.94;52.77;100745.03;5080206;27;65464;-42
2022/03/09 06:00:25;;;;;;;;;;;;;;;32.63;53.48;100743.50;5061902;28;69459;-41
2022/03/09 06:02:56;;;;;;;24.92;17.48;;;;;;;32.91;52.81;100728.38;5078430;27;66439;-42
2022/03/09 06:05:27;;;;;;;22.43;18.00;;;;;;;32.92;52.85;100728.13;5088267;27;69629;-41
2022/03/09 06:07:58;;;;;;;18.73;16.83;;;;;;;32.99;52.53;100729.88;5100229;27;64991;-41
2022/03/09 06:10:29;;;;;;;18.88;16.75;;;;;;;32.91;52.81;100712.06;5080875;27;69889;-43
2022/03/09 06:13:01;;;;;;;;;;;;;;;32.69;53.17;100725.44;5100796;27;65332;-42
2022/03/09 06:15:32;;;;;;;18.08;16.25;;;;;;;32.98;52.79;100711.94;5100103;27;70190;-41
2022/03/09 06:18:04;;;;;;;18.63;16.80;;;;;;;33.01;52.79;100716.91;5099255;27;66256;-41
2022/03/09 06:20:36;;;;;;;18.27;16.65;;;;;;;33.03;52.68;100703.94;5098072;27;69144;-41
2022/03/09 06:23:07;;;;;;;18.23;16.55;;;;;;;33.05;52.61;100696.38;5083261;27;66441;-41
2022/03/09 06:25:38;;;;;;;19.48;16.95;;;;;;;33.07;52.84;100696.94;5079762;27;69304;-43
2022/03/09 06:28:09;;;;;;;;;;;;;;;32.77;53.26;100695.19;5062770;28;66096;-41
2022/03/09 06:30:40;;;;;;;17.92;16.02;;;;;;;33.09;52.43;100681.22;5068221;28;69673;-41
2022/03/09 06:33:11;;;;;;;19.58;16.45;;;;;;;33.07;52.59;100677.91;5060231;28;66553;-42
2022/03/09 06:35:42;;;;;;;18.25;16.50;;;;;;;33.14;52.63;100674.00;5061541;28;69261;-41
2022/03/09 06:38:13;;;;;;;19.20;17.08;;;;;;;33.17;52.71;100672.69;5060064;28;65723;-42
2022/03/09 06:40:45;;;;;;;17.98;16.42;;;;;;;33.06;52.33;100649.09;5060782;28;70255;-41
2022/03/09 06:43:15;;;;;;;18.27;16.40;;;;;;;33.20;52.45;100666.78;5060971;28;66188;-41
2022/03/09 06:45:49;;;;;;;16.98;15.18;;;;;;;33.23;52.67;100654.59;5060446;28;69938;-42
2022/03/09 06:48:20;;;;;;;16.55;15.13;;;;;;;33.22;52.30;100642.91;5062540;28;66377;-42
2022/03/09 06:50:51;;;;;;;17.67;16.17;;;;;;;33.24;52.37;100648.94;5068391;28;69976;-42
2022/03/09 06:53:22;;;;;;;17.50;15.88;;;;;;;33.30;52.13;100642.53;5068668;28;65497;-42
2022/03/09 06:55:53;;;;;;;15.98;14.57;;;;;;;33.26;52.32;100632.34;5077865;27;70003;-42
2022/03/09 06:58:27;;;;;;;20.42;16.38;;;;;;;33.31;52.08;100630.56;5053405;28;65232;-42
2022/03/09 07:01:00;;;;;;;16.90;15.10;;;;;;;33.34;52.00;100629.25;5034444;28;70120;-44
2022/03/09 07:03:31;;;;;;;16.87;15.13;;;;;;;33.35;52.24;100626.31;5069822;27;64156;-42
2022/03/09 07:06:03;;;;;;;16.10;14.60;;;;;;;33.35;52.29;100623.59;5069060;27;69720;-41
2022/03/09 07:08:38;;;;;;;18.05;16.25;;;;;;;33.39;52.20;100621.19;5068355;28;65232;-42
2022/03/09 07:11:09;;;;;;;17.55;15.70;;;;;;;33.38;52.01;100609.50;5073544;27;69916;-42
2022/03/09 07:13:41;;;;;;;22.13;15.30;;;;;;;33.43;51.91;100605.22;5056831;28;65561;-42
2022/03/09 07:16:11;;;;;;;24.75;17.60;;;;;;;33.45;51.92;100597.66;5058749;28;69960;-42
2022/03/09 07:18:42;;;;;;;23.05;16.73;;;;;;;33.52;51.87;100596.47;5043589;28;65740;-41
2022/03/09 07:21:14;;;;;;;24.85;16.63;;;;;;;33.54;51.83;100596.19;5058513;28;70929;-42
2022/03/09 07:23:45;;;;;;;27.55;16.33;;;;;;;33.54;51.70;100590.75;5060304;28;65490;-44
2022/03/09 07:26:16;;;;;;;18.02;15.63;;;;;;;33.58;51.77;100583.78;5042256;28;69951;-41
2022/03/09 07:28:47;;;;;;;18.20;16.50;;;;;;;33.61;51.87;100591.44;5059132;28;65517;-42
2022/03/09 07:31:17;;;;;;;18.15;16.25;;;;;;;33.62;51.71;100582.19;5057955;28;69303;-42
2022/03/09 07:33:48;;;;;;;17.10;15.45;;;;;;;33.67;51.62;100585.00;5059879;28;65482;-42
2022/03/09 07:36:18;;;;;;;23.77;16.15;;;;;;;33.68;51.56;100586.66;5060220;28;70557;-41
2022/03/09 07:38:49;;;;;;;18.85;14.80;;;;;;;33.70;51.57;100583.69;5076142;28;65058;-41
2022/03/09 07:41:40;;;;;;;17.73;15.95;;;;;;;33.64;51.22;100566.47;5059252;28;69504;-41
2022/03/09 07:44:10;;;;;;;16.85;15.23;;;;;;;33.73;51.12;100584.00;5059874;28;66015;-41
2022/03/09 07:46:41;;;;;;;20.63;15.57;;;;;;;33.73;51.34;100578.56;5059560;28;70031;-42
2022/03/09 07:49:11;;;;;;;29.05;15.90;;;;;;;33.77;51.37;100577.03;5071676;28;65479;-42
2022/03/09 07:51:42;;;;;;;17.83;15.88;;;;;;;33.80;51.33;100568.38;5079919;27;69741;-41
2022/03/09 07:54:14;;;;;;;16.50;14.80;;;;;;;33.61;50.91;100542.47;5077083;28;65231;-47
2022/03/09 07:56:44;;;;;;;16.58;15.00;;;;;;;33.79;51.45;100566.72;5080694;27;69821;-41
2022/03/09 07:59:15;;;;;;;16.23;14.82;;;;;;;33.83;51.04;100571.66;5062788;28;66185;-41
2022/03/09 08:01:46;;;;;;;17.83;15.95;;;;;;;33.81;51.09;100552.84;5078742;27;69490;-41
2022/03/09 08:04:16;;;;;;;16.38;14.88;;;;;;;33.87;51.15;100561.94;5079743;27;66074;-41
2022/03/09 08:06:53;;;;;;;16.67;15.13;;;;;;;33.87;50.83;100551.03;5077120;27;70306;-41
2022/03/09 08:09:31;;;;;;;15.55;14.30;;;;;;;33.87;51.21;100548.31;5071670;27;66133;-42
2022/03/09 08:12:02;;;;;;;19.95;15.77;;;;;;;33.87;51.27;100534.72;5073966;27;69389;-42
2022/03/09 08:14:32;;;;;;;17.45;15.68;;;;;;;33.87;51.46;100537.44;5078113;27;66285;-42
2022/03/09 08:17:03;;;;;;;18.60;16.35;;;;;;;33.95;51.22;100539.75;5078906;28;70340;-42
2022/03/09 08:19:34;;;;;;;18.50;15.88;;;;;;;33.97;51.30;100537.59;5078072;28;66550;-41
2022/03/09 08:22:04;;;;;;;20.98;16.80;;;;;;;33.98;51.48;100541.97;5076692;28;70086;-42
2022/03/09 08:24:35;;;;;;;17.08;15.35;;;;;;;33.94;51.57;100535.38;5079140;27;66415;-42
2022/03/09 08:27:08;;;;;;;17.45;15.70;;;;;;;33.97;51.48;100534.88;5078960;27;69346;-40
2022/03/09 08:29:38;;;;;;;17.33;15.52;;;;;;;34.01;51.31;100538.72;5078210;27;67087;-40
2022/03/09 08:32:08;;;;;;;16.48;14.88;;;;;;;33.98;51.29;100525.63;5079995;27;69976;-42
2022/03/09 08:34:39;;;;;;;27.02;16.77;;;;;;;34.03;51.29;100539.31;5080151;28;66459;-42
2022/03/09 08:37:11;;;;;;;18.35;16.40;;;;;;;34.00;51.40;100534.38;5078236;27;69681;-41
2022/03/09 08:39:43;;;;;;;17.33;15.27;;;;;;;33.96;51.29;100522.31;5080091;27;65441;-41
2022/03/09 08:42:17;;;;;;;17.77;16.08;;;;;;;34.05;51.81;100533.66;5078072;28;70246;-42
2022/03/09 08:44:47;;;;;;;18.17;15.55;;;;;;;34.03;51.25;100529.25;5078871;28;66502;-41
2022/03/09 08:47:19;;;;;;;17.85;15.18;;;;;;;34.09;51.45;100534.81;5078931;27;69350;-42
2022/03/09 08:49:50;;;;;;;18.50;16.58;;;;;;;34.05;51.67;100510.00;5076296;28;65111;-42
2022/03/09 08:52:24;;;;;;;16.92;15.38;;;;;;;34.13;51.38;100528.63;5077315;27;70016;-42
2022/03/09 08:54:55;;;;;;;21.27;16.38;;;;;;;34.15;51.79;100526.44;5078467;27;66131;-42
2022/03/09 08:57:26;;;;;;;17.10;15.57;;;;;;;34.16;51.76;100533.56;5078114;27;70816;-41
2022/03/09 08:59:57;;;;;;;18.77;16.75;;;;;;;34.21;51.46;100530.06;5079599;27;66501;-41
2022/03/09 09:02:28;;;;;;;18.13;14.35;;;;;;;34.18;51.43;100520.50;5060934;28;69034;-42
2022/03/09 09:04:59;;;;;;;16.77;15.05;;;;;;;34.24;51.50;100529.56;5060836;27;67955;-41
2022/03/09 09:07:31;;;;;;;31.17;19.10;;;;;;;34.26;51.44;100532.84;5059505;28;69282;-42
2022/03/09 09:10:01;;;;;;;25.77;19.85;;;;;;;34.30;51.12;100533.16;5064266;28;66625;-42
2022/03/09 09:12:32;;;;;;;32.33;20.45;;;;;;;34.36;51.55;100537.63;5078129;27;68667;-41
2022/03/09 09:15:03;;;;;;;32.50;20.73;;;;;;;34.30;52.44;100522.28;5077491;28;66221;-42
2022/03/09 09:17:35;;;;;;;37.38;21.58;;;;;;;34.39;53.05;100559.72;5078368;28;70091;-42
2022/03/09 09:20:09;;;;;;;35.72;22.40;;;;;;;34.38;55.37;100558.09;5079337;27;65718;-40
2022/03/09 09:22:42;;;;;;;28.75;22.20;;;;;;;34.40;54.95;100557.81;5077590;28;70468;-40
2022/03/09 09:25:33;;;;;;;34.13;21.77;;;;;;;34.37;54.75;100561.88;5078066;28;66546;-40
2022/03/09 09:28:04;;;;;;;33.47;20.92;;;;;;;34.38;54.35;100563.53;5079330;27;69807;-41
2022/03/09 09:30:35;;;;;;;26.97;18.73;;;;;;;34.30;54.32;100549.50;5078374;27;67421;-41
2022/03/09 09:33:05;;;;;;;26.80;19.52;;;;;;;34.38;53.58;100576.28;5079366;28;69721;-41
2022/03/09 09:35:37;;;;;;;34.28;18.65;;;;;;;34.36;53.06;100562.13;5078487;27;65243;-40
2022/03/09 09:38:08;;;;;;;29.98;17.35;;;;;;;34.38;52.87;100563.53;5077188;27;69208;-41
2022/03/09 09:40:45;;;;;;;23.43;17.97;;;;;;;34.08;52.58;100520.38;5078781;28;66420;-40
2022/03/09 09:43:16;;;;;;;29.98;17.90;;;;;;;34.36;52.57;100567.56;5078535;27;69797;-41
2022/03/09 09:45:47;;;;;;;26.73;16.67;;;;;;;34.35;52.59;100584.97;5077871;28;65420;-41
2022/03/09 09:48:19;;;;;;;28.42;16.33;;;;;;;34.33;52.48;100581.69;5076639;28;69525;-40
2022/03/09 09:50:54;;;;;;;28.25;15.57;;;;;;;34.32;52.82;100580.03;5077920;28;65283;-40
2022/03/09 09:53:27;;;;;;;25.80;15.45;;;;;;;34.37;52.65;100594.53;5078531;27;70283;-43
2022/03/09 09:55:58;;;;;;;21.70;15.32;;;;;;;34.36;52.56;100603.78;5079359;28;65630;-41
2022/03/09 09:58:29;;;;;;;26.17;14.37;;;;;;;34.33;52.50;100600.75;5077514;28;70505;-41
2022/03/09 10:01:00;;;;;;;28.05;15.23;;;;;;;34.31;52.43;100600.19;5062226;28;65144;-41
2022/03/09 10:03:31;;;;;;;28.00;14.55;;;;;;;34.25;52.79;100591.94;5082125;27;70336;-41
2022/03/09 10:06:02;;;;;;;30.53;15.10;;;;;;;34.22;52.31;100592.44;5095199;27;67510;-40
2022/03/09 10:08:39;;;;;;;39.67;16.33;;;;;;;34.28;52.41;100595.22;5078122;27;69380;-41
2022/03/09 10:11:10;;;;;;;39.95;17.63;;;;;;;34.26;52.33;100599.00;5062229;28;65943;-40
2022/03/09 10:13:41;;;;;;;36.13;17.35;;;;;;;34.23;52.37;100610.41;5062306;28;69523;-41
2022/03/09 10:16:21;;;;;;;33.75;17.13;;;;;;;34.12;52.36;100596.91;5062892;28;66733;-41
2022/03/09 10:18:54;;;;;;;31.73;17.40;;;;;;;34.23;52.54;100610.41;5061705;28;70295;-39
2022/03/09 10:21:39;;;;;;;27.63;16.52;;;;;;;34.22;51.66;100610.66;5050369;28;66267;-41
2022/03/09 10:24:11;;;;;;;30.42;15.93;;;;;;;34.18;52.15;100610.31;5060708;28;70406;-40
2022/03/09 10:26:43;;;;;;;29.73;14.90;;;;;;;34.18;52.04;100623.94;5067838;27;65510;-41
2022/03/09 10:29:18;;;;;;;33.05;15.35;;;;;;;34.20;52.09;100626.41;5060873;27;69048;-41
2022/03/09 10:31:51;;;;;;;28.65;14.43;;;;;;;34.01;52.09;100601.31;5066032;28;66234;-41
2022/03/09 10:34:27;;;;;;;26.67;13.75;;;;;;;34.18;52.96;100639.44;5067400;28;70007;-40
2022/03/09 10:37:06;;;;;;;31.50;13.27;;;;;;;34.14;52.35;100633.69;5071745;28;66373;-43
2022/03/09 10:39:38;;;;;;;30.58;13.70;;;;;;;34.07;51.92;100624.84;5070667;28;70324;-42
2022/03/09 10:42:25;;;;;;;33.47;12.63;;;;;;;34.01;51.83;100634.81;5063302;28;66375;-45
2022/03/09 10:44:57;;;;;;;23.25;13.05;;;;;;;34.03;51.88;100631.84;5071895;28;70007;-44
2022/03/09 10:48:00;;;;;;;29.95;13.38;;;;;;;33.96;51.65;100637.47;5072124;28;66411;-46
2022/03/09 10:50:31;;;;;;;22.38;12.27;;;;;;;33.99;51.66;100634.25;5066354;27;70919;-43
2022/03/09 10:53:04;;;;;;;29.90;12.15;;;;;;;33.96;51.55;100647.50;5068686;28;66202;-44
2022/03/09 10:55:41;;;;;;;35.28;12.55;;;;;;;33.93;51.91;100642.56;5071713;28;70545;-44
2022/03/09 10:58:20;;;;;;;20.80;11.05;;;;;;;33.86;52.34;100641.91;5086593;27;65865;-44
2022/03/09 11:00:54;;;;;;;22.90;11.27;;;;;;;33.87;52.43;100644.38;5068450;28;70090;-43
2022/03/09 11:03:28;;;;;;;30.17;15.52;;;;;;;33.42;52.85;100598.97;5068043;28;66128;-44
2022/03/09 11:06:01;;;;;;;31.83;15.70;;;;;;;33.36;52.87;100605.38;5073976;27;70512;-44
2022/03/09 11:08:37;;;;;;;26.73;14.55;;;;;;;33.50;53.47;100655.66;5076354;27;66344;-45
2022/03/09 11:11:09;;;;;;;30.67;15.25;;;;;;;33.40;54.05;100663.63;5065292;27;70198;-43
2022/03/09 11:13:40;;;;;;;32.60;14.68;;;;;;;33.29;54.36;100665.34;5065829;28;66498;-43
2022/03/09 11:16:10;;;;;;;25.52;14.70;;;;;;;33.24;54.27;100667.97;5065986;28;69311;-46
2022/03/09 11:18:42;;;;;;;26.58;14.25;;;;;;;33.20;54.65;100677.66;5067144;28;66204;-45
2022/03/09 11:21:16;;;;;;;26.27;14.07;;;;;;;33.05;54.73;100664.59;5070964;28;69335;-45
2022/03/09 11:23:48;;;;;;;22.30;13.07;;;;;;;32.89;54.60;100635.41;5068442;28;66405;-44
2022/03/09 11:26:30;;;;;;;26.95;13.77;;;;;;;32.45;54.84;100588.81;5066653;28;69587;-44
2022/03/09 11:29:05;;;;;;;25.13;13.15;;;;;;;33.04;54.80;100681.13;5065303;28;66187;-44
2022/03/09 11:31:51;;;;;;;23.10;12.10;;;;;;;32.97;54.96;100677.69;5051897;28;70638;-45
2022/03/09 11:34:44;;;;;;;25.92;12.90;;;;;;;32.88;55.00;100680.78;5069840;28;66360;-44
2022/03/09 11:37:18;;;;;;;16.15;11.93;;;;;;;32.93;55.19;100688.19;5063927;27;68033;-44
2022/03/09 11:40:08;;;;;;;17.88;13.13;;;;;;;32.83;55.34;100698.84;5069924;28;66322;-46
2022/03/09 11:42:41;;;;;;;21.58;11.32;;;;;;;32.86;55.14;100692.94;5066913;28;69161;-44
2022/03/09 11:45:32;;;;;;;23.73;12.93;;;;;;;32.44;55.17;100636.84;5068821;27;65500;-45
2022/03/09 11:48:08;;;;;;;30.27;12.00;;;;;;;32.62;55.21;100662.25;5070152;28;69903;-45
2022/03/09 11:50:48;;;;;;;17.50;10.95;;;;;;;32.84;54.99;100706.75;5065786;28;66388;-44
2022/03/09 11:53:39;;;;;;;19.73;11.85;;;;;;;32.74;55.58;100716.59;5069047;28;70329;-44
2022/03/09 11:56:28;;;;;;;14.50;11.88;;;;;;;32.72;55.40;100719.53;5082983;27;66006;-45
2022/03/09 11:59:10;;;;;;;23.77;13.02;;;;;;;32.43;55.21;100673.22;5069430;28;70055;-45
2022/03/09 12:01:59;;;;;;;21.37;12.40;;;;;;;32.66;55.60;100734.06;5068923;27;65729;-46